Giove Jet — IJNX — position and weather

sailwx.info

Track history (hours):
 
Tides and Currents Weather Stations Pressure Air Temp Water Temp Dewpoint Dewpoint Depression Visibility Wind Speed Wind Dir Waves Ship Positions

Giove Jet

Last reported at 2017-Aug-16 12:40 UTC. Time now 2017-Aug-16 13:04 UTC.
Position N 40°50' E 014°16'.

Length 33 m; draft 1.2 m.

Type: Ship. MMSI: 247049500.

Date/timePositionNaut miles runAvg speedWind from/ knotsBaromVisibWave heightAir tempDewpointWater temp
2017-Aug-16 12:40N 40°50' E 014°16'213.2
2017-Aug-16 12:31N 40°49' E 014°17'1122.6
2017-Aug-16 12:00N 40°38' E 014°23'0 0.0
2017-Aug-16 11:30N 40°38' E 014°23'0 0.0
2017-Aug-16 11:00N 40°38' E 014°23'5 5.7
2017-Aug-16 10:08N 40°35' E 014°17'323.7
2017-Aug-16 10:00N 40°38' E 014°19'4 7.5
2017-Aug-16 09:30N 40°41' E 014°22'1117.5
2017-Aug-16 08:54N 40°50' E 014°15'2 6.2
2017-Aug-16 08:30N 40°49' E 014°18'1122.7
2017-Aug-16 08:00N 40°38' E 014°23'3 5.4
2017-Aug-16 07:31N 40°40' E 014°22'1121.8
2017-Aug-16 07:00N 40°50' E 014°15'713.4
2017-Aug-16 06:31N 40°44' E 014°20'7 0.5
2017-Aug-15 18:04N 40°38' E 014°23'227.3
2017-Aug-15 18:00N 40°40' E 014°22'5 5.2
2017-Aug-15 17:02N 40°44' E 014°20'126.3
2017-Aug-15 17:00N 40°44' E 014°20'612.1
2017-Aug-15 16:30N 40°38' E 014°22'0 0.0
2017-Aug-15 16:00N 40°38' E 014°22'1119.5
2017-Aug-15 15:25N 40°48' E 014°17'5 6.9
2017-Aug-15 14:45N 40°44' E 014°20'625.1
2017-Aug-15 14:31N 40°39' E 014°23'1 2.0
2017-Aug-15 14:00N 40°38' E 014°23'510.5
2017-Aug-15 13:31N 40°43' E 014°21'810.2
2017-Aug-15 12:41N 40°50' E 014°15'213.2
2017-Aug-15 12:31N 40°49' E 014°17'1223.0
2017-Aug-15 12:01N 40°38' E 014°23'0 0.0
2017-Aug-15 11:30N 40°38' E 014°23'0 0.0
2017-Aug-15 11:01N 40°38' E 014°23'815.1
2017-Aug-15 10:30N 40°33' E 014°14'714.7
2017-Aug-15 10:01N 40°39' E 014°21'3 6.3
2017-Aug-15 09:31N 40°42' E 014°21'2 2.0
2017-Aug-15 08:23N 40°44' E 014°21'616.2
2017-Aug-15 08:00N 40°38' E 014°23'8 5.9
2017-Aug-15 06:40N 40°45' E 014°19'215.2
2017-Aug-15 06:30N 40°43' E 014°21'511.0
2017-Aug-15 06:00N 40°38' E 014°23'0 0.0
2017-Aug-15 05:30N 40°38' E 014°23'0 0.0
2017-Aug-14 17:39N 40°38' E 014°23'0 0.6
2017-Aug-14 17:30N 40°38' E 014°22'0 0.0
2017-Aug-14 17:00N 40°38' E 014°22'0 0.0
2017-Aug-14 16:30N 40°38' E 014°22'4 7.3
2017-Aug-14 16:00N 40°41' E 014°21'3 2.7
2017-Aug-14 14:44N 40°45' E 014°19'626.3
2017-Aug-14 14:31N 40°39' E 014°22'1 2.3
2017-Aug-14 14:00N 40°38' E 014°23'5 9.7
2017-Aug-14 13:30N 40°42' E 014°21'2 2.0
2017-Aug-14 12:21N 40°45' E 014°20'721.1
2017-Aug-14 12:00N 40°38' E 014°23'0 0.0
2017-Aug-14 11:30N 40°38' E 014°23'0 0.0
2017-Aug-14 11:00N 40°38' E 014°23'4 4.4
2017-Aug-14 10:06N 40°36' E 014°18'225.5
2017-Aug-14 10:00N 40°38' E 014°20'4 7.8
2017-Aug-14 09:31N 40°41' E 014°21'3 2.9
2017-Aug-14 08:22N 40°45' E 014°20'720.1
2017-Aug-14 08:00N 40°38' E 014°23'3 6.0
2017-Aug-14 07:31N 40°41' E 014°21'6 5.9
2017-Aug-14 06:33N 40°46' E 014°18'128.1
2017-Aug-14 06:30N 40°45' E 014°19'714.9
2017-Aug-14 06:00N 40°38' E 014°23'0 0.0
2017-Aug-14 05:30N 40°38' E 014°23'0 0.0
2017-Aug-13 18:09N 40°38' E 014°23'427.3
2017-Aug-13 18:00N 40°41' E 014°21'4 4.3
2017-Aug-13 17:10N 40°45' E 014°20'425.0
2017-Aug-13 17:00N 40°42' E 014°22'4 7.5
2017-Aug-13 16:30N 40°38' E 014°23'0 0.0
2017-Aug-13 16:00N 40°38' E 014°23'8 6.7
2017-Aug-13 14:47N 40°46' E 014°20'725.2
2017-Aug-13 14:31N 40°39' E 014°22'1 2.3
2017-Aug-13 14:00N 40°38' E 014°23'5 9.9
2017-Aug-13 13:31N 40°42' E 014°20'7 4.7
2017-Aug-13 12:06N 40°48' E 014°15'227.1
2017-Aug-13 12:00N 40°47' E 014°12'1 0.8
2017-Aug-13 10:35N 40°47' E 014°11'2 2.0
2017-Aug-13 09:20N 40°47' E 014°14'2 1.4
2017-Aug-13 07:45N 40°47' E 014°11'13 0.9
2017-Aug-12 17:02N 40°38' E 014°23'0 3.8
2017-Aug-12 17:00N 40°38' E 014°23'3 3.3
2017-Aug-12 16:12N 40°38' E 014°19'312.4
2017-Aug-12 16:00N 40°38' E 014°23'3 2.0
2017-Aug-12 14:35N 40°41' E 014°22'224.9
2017-Aug-12 14:30N 40°39' E 014°23'1 1.3
2017-Aug-12 13:46N 40°38' E 014°23'5 0.6
2017-Aug-12 06:25N 40°42' E 014°20'510.3
2017-Aug-12 05:58N 40°38' E 014°23'0 0.0
2017-Aug-12 05:30N 40°38' E 014°23'0 0.0
2017-Aug-11 15:59N 40°38' E 014°23'2 1.4
2017-Aug-11 14:34N 40°40' E 014°22'124.9
2017-Aug-11 14:30N 40°38' E 014°23'1 0.6
2017-Aug-11 12:08N 40°40' E 014°22'2 3.1
2017-Aug-11 11:30N 40°38' E 014°23'3 5.7
2017-Aug-11 11:00N 40°38' E 014°19'0 0.2
2017-Aug-11 10:09N 40°38' E 014°19'215.2
2017-Aug-11 10:01N 40°38' E 014°22'4 2.1
2017-Aug-11 08:17N 40°42' E 014°21'414.8
2017-Aug-11 08:00N 40°38' E 014°23'3 5.8
2017-Aug-11 07:31N 40°41' E 014°21'1 1.3
2017-Aug-11 06:25N 40°42' E 014°21'4 4.2
2017-Aug-11 05:24N 40°38' E 014°23'0 0.0
2017-Aug-10 17:02N 40°38' E 014°23'0 2.7
2017-Aug-10 17:00N 40°38' E 014°23'2 2.8
2017-Aug-10 16:08N 40°38' E 014°20'217.9
2017-Aug-10 16:00N 40°38' E 014°23'1312.6
2017-Aug-10 14:58N 40°50' E 014°16'1225.1
2017-Aug-10 14:30N 40°39' E 014°22'1 2.7
2017-Aug-10 14:00N 40°38' E 014°23'3 1.7
2017-Aug-10 12:11N 40°41' E 014°22'318.5
2017-Aug-10 12:01N 40°38' E 014°23'0 0.0
2017-Aug-10 11:30N 40°38' E 014°23'0 0.0
2017-Aug-10 11:00N 40°38' E 014°23'714.2
2017-Aug-10 10:30N 40°34' E 014°15'611.4
2017-Aug-10 10:00N 40°38' E 014°20'1013.0
2017-Aug-10 09:14N 40°48' E 014°17'2 4.2
2017-Aug-10 08:40N 40°50' E 014°16'1023.6
2017-Aug-10 08:15N 40°41' E 014°22'412.7
2017-Aug-10 07:58N 40°38' E 014°23'1116.0
2017-Aug-10 07:16N 40°48' E 014°17'8 9.2
2017-Aug-10 06:25N 40°41' E 014°22'3 7.9
2017-Aug-10 06:00N 40°38' E 014°23'0 0.0
2017-Aug-10 05:30N 40°38' E 014°23'0 0.0
2017-Aug-09 17:02N 40°38' E 014°23'0 0.0
2017-Aug-09 17:00N 40°38' E 014°23'3 3.0
2017-Aug-09 16:07N 40°37' E 014°19'323.3
2017-Aug-09 16:01N 40°38' E 014°23'1118.4
2017-Aug-09 15:25N 40°48' E 014°17'2 4.9
2017-Aug-09 15:01N 40°50' E 014°16'1325.8
2017-Aug-09 14:30N 40°38' E 014°23'0 0.2
2017-Aug-09 14:00N 40°38' E 014°23'611.6
2017-Aug-09 13:30N 40°43' E 014°20'810.3
2017-Aug-09 12:45N 40°50' E 014°15'2 6.9
2017-Aug-09 12:30N 40°49' E 014°17'1221.9
2017-Aug-09 11:57N 40°38' E 014°23'0 0.0
2017-Aug-09 11:27N 40°38' E 014°23'0 0.0
2017-Aug-09 11:00N 40°38' E 014°23'3 3.4
2017-Aug-09 10:03N 40°37' E 014°19'224.7
2017-Aug-09 09:59N 40°38' E 014°20'3 5.8
2017-Aug-09 09:30N 40°40' E 014°22'1113.6
2017-Aug-09 08:42N 40°50' E 014°15'519.3
2017-Aug-09 08:25N 40°46' E 014°19'819.5
2017-Aug-09 08:00N 40°38' E 014°23'5 2.9
2017-Aug-09 06:25N 40°42' E 014°21'511.4
2017-Aug-09 06:00N 40°38' E 014°23'0 0.0
2017-Aug-09 05:30N 40°38' E 014°23'0 0.0
2017-Aug-08 16:59N 40°38' E 014°23'2 2.2
2017-Aug-08 16:05N 40°38' E 014°20'223.9
2017-Aug-08 16:00N 40°38' E 014°23'1018.2
2017-Aug-08 15:29N 40°47' E 014°18'3 7.4
2017-Aug-08 15:00N 40°50' E 014°16'1224.4
2017-Aug-08 14:30N 40°39' E 014°23'1 1.8
2017-Aug-08 14:00N 40°38' E 014°23'510.7
2017-Aug-08 13:30N 40°43' E 014°21'816.9
2017-Aug-08 13:00N 40°50' E 014°15'2 4.4
2017-Aug-08 12:31N 40°49' E 014°17'1222.6
2017-Aug-08 12:00N 40°38' E 014°23'0 0.0
2017-Aug-08 11:31N 40°38' E 014°23'0 0.0
2017-Aug-08 11:01N 40°38' E 014°23'7 8.7
2017-Aug-08 10:14N 40°34' E 014°15'523.4
2017-Aug-08 10:00N 40°38' E 014°20'6 9.9
2017-Aug-08 09:22N 40°44' E 014°20'710.1
2017-Aug-08 08:41N 40°50' E 014°15'213.4
2017-Aug-08 08:30N 40°48' E 014°18'1122.3
2017-Aug-08 08:00N 40°38' E 014°23'4 8.1
2017-Aug-08 07:30N 40°42' E 014°21'1 0.5
2017-Aug-08 06:23N 40°42' E 014°22'4 9.9
2017-Aug-08 06:00N 40°38' E 014°23'0 0.0
2017-Aug-07 17:12N 40°38' E 014°23'2 2.2
2017-Aug-07 16:16N 40°38' E 014°20'2 7.6
2017-Aug-07 16:00N 40°38' E 014°23'7 0.7
2017-Aug-07 06:30N 40°44' E 014°20'714.1
2017-Aug-07 06:00N 40°38' E 014°23'0 0.0
2017-Aug-06 18:14N 40°38' E 014°23'416.8
2017-Aug-06 18:00N 40°41' E 014°21'1 1.0
2017-Aug-06 17:01N 40°42' E 014°21'028.2
2017-Aug-06 17:00N 40°42' E 014°21'5 9.0
2017-Aug-06 16:30N 40°38' E 014°22'0 0.0
2017-Aug-06 16:00N 40°38' E 014°22'1019.9
2017-Aug-06 15:29N 40°48' E 014°18'3 5.9
2017-Aug-06 15:00N 40°50' E 014°16'1224.5
2017-Aug-06 14:30N 40°39' E 014°23'1 2.1
2017-Aug-06 14:00N 40°38' E 014°23'814.3
2017-Aug-06 13:27N 40°45' E 014°19'  
Track history (hours):
 
Tides and Currents Weather Stations Pressure Air Temp Water Temp Dewpoint Dewpoint Depression Visibility Wind Speed Wind Dir Waves Ship Positions

Giove Jet

Last reported at 2017-Aug-16 12:40 UTC. Time now 2017-Aug-16 13:04 UTC.
Position N 40°50' E 014°16'.

Length 33 m; draft 1.2 m.

Type: Ship. MMSI: 247049500.

Date/timePositionNaut miles runAvg speedWind from/ knotsBaromVisibWave heightAir tempDewpointWater temp
2017-Aug-16 12:40N 40°50' E 014°16'213.2
2017-Aug-16 12:31N 40°49' E 014°17'1122.6
2017-Aug-16 12:00N 40°38' E 014°23'0 0.0
2017-Aug-16 11:30N 40°38' E 014°23'0 0.0
2017-Aug-16 11:00N 40°38' E 014°23'5 5.7
2017-Aug-16 10:08N 40°35' E 014°17'323.7
2017-Aug-16 10:00N 40°38' E 014°19'4 7.5
2017-Aug-16 09:30N 40°41' E 014°22'1117.5
2017-Aug-16 08:54N 40°50' E 014°15'2 6.2
2017-Aug-16 08:30N 40°49' E 014°18'1122.7
2017-Aug-16 08:00N 40°38' E 014°23'3 5.4
2017-Aug-16 07:31N 40°40' E 014°22'1121.8
2017-Aug-16 07:00N 40°50' E 014°15'713.4
2017-Aug-16 06:31N 40°44' E 014°20'7 0.5
2017-Aug-15 18:04N 40°38' E 014°23'227.3
2017-Aug-15 18:00N 40°40' E 014°22'5 5.2
2017-Aug-15 17:02N 40°44' E 014°20'126.3
2017-Aug-15 17:00N 40°44' E 014°20'612.1
2017-Aug-15 16:30N 40°38' E 014°22'0 0.0
2017-Aug-15 16:00N 40°38' E 014°22'1119.5
2017-Aug-15 15:25N 40°48' E 014°17'5 6.9
2017-Aug-15 14:45N 40°44' E 014°20'625.1
2017-Aug-15 14:31N 40°39' E 014°23'1 2.0
2017-Aug-15 14:00N 40°38' E 014°23'510.5
2017-Aug-15 13:31N 40°43' E 014°21'810.2
2017-Aug-15 12:41N 40°50' E 014°15'213.2
2017-Aug-15 12:31N 40°49' E 014°17'1223.0
2017-Aug-15 12:01N 40°38' E 014°23'0 0.0
2017-Aug-15 11:30N 40°38' E 014°23'0 0.0
2017-Aug-15 11:01N 40°38' E 014°23'815.1
2017-Aug-15 10:30N 40°33' E 014°14'714.7
2017-Aug-15 10:01N 40°39' E 014°21'3 6.3
2017-Aug-15 09:31N 40°42' E 014°21'2 2.0
2017-Aug-15 08:23N 40°44' E 014°21'616.2
2017-Aug-15 08:00N 40°38' E 014°23'8 5.9
2017-Aug-15 06:40N 40°45' E 014°19'215.2
2017-Aug-15 06:30N 40°43' E 014°21'511.0
2017-Aug-15 06:00N 40°38' E 014°23'0 0.0
2017-Aug-15 05:30N 40°38' E 014°23'0 0.0
2017-Aug-14 17:39N 40°38' E 014°23'0 0.6
2017-Aug-14 17:30N 40°38' E 014°22'0 0.0
2017-Aug-14 17:00N 40°38' E 014°22'0 0.0
2017-Aug-14 16:30N 40°38' E 014°22'4 7.3
2017-Aug-14 16:00N 40°41' E 014°21'3 2.7
2017-Aug-14 14:44N 40°45' E 014°19'626.3
2017-Aug-14 14:31N 40°39' E 014°22'1 2.3
2017-Aug-14 14:00N 40°38' E 014°23'5 9.7
2017-Aug-14 13:30N 40°42' E 014°21'2 2.0
2017-Aug-14 12:21N 40°45' E 014°20'721.1
2017-Aug-14 12:00N 40°38' E 014°23'0 0.0
2017-Aug-14 11:30N 40°38' E 014°23'0 0.0
2017-Aug-14 11:00N 40°38' E 014°23'4 4.4
2017-Aug-14 10:06N 40°36' E 014°18'225.5
2017-Aug-14 10:00N 40°38' E 014°20'4 7.8
2017-Aug-14 09:31N 40°41' E 014°21'3 2.9
2017-Aug-14 08:22N 40°45' E 014°20'720.1
2017-Aug-14 08:00N 40°38' E 014°23'3 6.0
2017-Aug-14 07:31N 40°41' E 014°21'6 5.9
2017-Aug-14 06:33N 40°46' E 014°18'128.1
2017-Aug-14 06:30N 40°45' E 014°19'714.9
2017-Aug-14 06:00N 40°38' E 014°23'0 0.0
2017-Aug-14 05:30N 40°38' E 014°23'0 0.0
2017-Aug-13 18:09N 40°38' E 014°23'427.3
2017-Aug-13 18:00N 40°41' E 014°21'4 4.3
2017-Aug-13 17:10N 40°45' E 014°20'425.0
2017-Aug-13 17:00N 40°42' E 014°22'4 7.5
2017-Aug-13 16:30N 40°38' E 014°23'0 0.0
2017-Aug-13 16:00N 40°38' E 014°23'8 6.7
2017-Aug-13 14:47N 40°46' E 014°20'725.2
2017-Aug-13 14:31N 40°39' E 014°22'1 2.3
2017-Aug-13 14:00N 40°38' E 014°23'5 9.9
2017-Aug-13 13:31N 40°42' E 014°20'7 4.7
2017-Aug-13 12:06N 40°48' E 014°15'227.1
2017-Aug-13 12:00N 40°47' E 014°12'1 0.8
2017-Aug-13 10:35N 40°47' E 014°11'2 2.0
2017-Aug-13 09:20N 40°47' E 014°14'2 1.4
2017-Aug-13 07:45N 40°47' E 014°11'13 0.9
2017-Aug-12 17:02N 40°38' E 014°23'0 3.8
2017-Aug-12 17:00N 40°38' E 014°23'3 3.3
2017-Aug-12 16:12N 40°38' E 014°19'312.4
2017-Aug-12 16:00N 40°38' E 014°23'3 2.0
2017-Aug-12 14:35N 40°41' E 014°22'224.9
2017-Aug-12 14:30N 40°39' E 014°23'1 1.3
2017-Aug-12 13:46N 40°38' E 014°23'5 0.6
2017-Aug-12 06:25N 40°42' E 014°20'510.3
2017-Aug-12 05:58N 40°38' E 014°23'0 0.0
2017-Aug-12 05:30N 40°38' E 014°23'0 0.0
2017-Aug-11 15:59N 40°38' E 014°23'2 1.4
2017-Aug-11 14:34N 40°40' E 014°22'124.9
2017-Aug-11 14:30N 40°38' E 014°23'1 0.6
2017-Aug-11 12:08N 40°40' E 014°22'2 3.1
2017-Aug-11 11:30N 40°38' E 014°23'3 5.7
2017-Aug-11 11:00N 40°38' E 014°19'0 0.2
2017-Aug-11 10:09N 40°38' E 014°19'215.2
2017-Aug-11 10:01N 40°38' E 014°22'4 2.1
2017-Aug-11 08:17N 40°42' E 014°21'414.8
2017-Aug-11 08:00N 40°38' E 014°23'3 5.8
2017-Aug-11 07:31N 40°41' E 014°21'1 1.3
2017-Aug-11 06:25N 40°42' E 014°21'4 4.2
2017-Aug-11 05:24N 40°38' E 014°23'0 0.0
2017-Aug-10 17:02N 40°38' E 014°23'0 2.7
2017-Aug-10 17:00N 40°38' E 014°23'2 2.8
2017-Aug-10 16:08N 40°38' E 014°20'217.9
2017-Aug-10 16:00N 40°38' E 014°23'1312.6
2017-Aug-10 14:58N 40°50' E 014°16'1225.1
2017-Aug-10 14:30N 40°39' E 014°22'1 2.7
2017-Aug-10 14:00N 40°38' E 014°23'3 1.7
2017-Aug-10 12:11N 40°41' E 014°22'318.5
2017-Aug-10 12:01N 40°38' E 014°23'0 0.0
2017-Aug-10 11:30N 40°38' E 014°23'0 0.0
2017-Aug-10 11:00N 40°38' E 014°23'714.2
2017-Aug-10 10:30N 40°34' E 014°15'611.4
2017-Aug-10 10:00N 40°38' E 014°20'1013.0
2017-Aug-10 09:14N 40°48' E 014°17'2 4.2
2017-Aug-10 08:40N 40°50' E 014°16'1023.6
2017-Aug-10 08:15N 40°41' E 014°22'412.7
2017-Aug-10 07:58N 40°38' E 014°23'1116.0
2017-Aug-10 07:16N 40°48' E 014°17'8 9.2
2017-Aug-10 06:25N 40°41' E 014°22'3 7.9
2017-Aug-10 06:00N 40°38' E 014°23'0 0.0
2017-Aug-10 05:30N 40°38' E 014°23'0 0.0
2017-Aug-09 17:02N 40°38' E 014°23'0 0.0
2017-Aug-09 17:00N 40°38' E 014°23'3 3.0
2017-Aug-09 16:07N 40°37' E 014°19'323.3
2017-Aug-09 16:01N 40°38' E 014°23'1118.4
2017-Aug-09 15:25N 40°48' E 014°17'2 4.9
2017-Aug-09 15:01N 40°50' E 014°16'1325.8
2017-Aug-09 14:30N 40°38' E 014°23'0 0.2
2017-Aug-09 14:00N 40°38' E 014°23'611.6
2017-Aug-09 13:30N 40°43' E 014°20'810.3
2017-Aug-09 12:45N 40°50' E 014°15'2 6.9
2017-Aug-09 12:30N 40°49' E 014°17'1221.9
2017-Aug-09 11:57N 40°38' E 014°23'0 0.0
2017-Aug-09 11:27N 40°38' E 014°23'0 0.0
2017-Aug-09 11:00N 40°38' E 014°23'3 3.4
2017-Aug-09 10:03N 40°37' E 014°19'224.7
2017-Aug-09 09:59N 40°38' E 014°20'3 5.8
2017-Aug-09 09:30N 40°40' E 014°22'1113.6
2017-Aug-09 08:42N 40°50' E 014°15'519.3
2017-Aug-09 08:25N 40°46' E 014°19'819.5
2017-Aug-09 08:00N 40°38' E 014°23'5 2.9
2017-Aug-09 06:25N 40°42' E 014°21'511.4
2017-Aug-09 06:00N 40°38' E 014°23'0 0.0
2017-Aug-09 05:30N 40°38' E 014°23'0 0.0
2017-Aug-08 16:59N 40°38' E 014°23'2 2.2
2017-Aug-08 16:05N 40°38' E 014°20'223.9
2017-Aug-08 16:00N 40°38' E 014°23'1018.2
2017-Aug-08 15:29N 40°47' E 014°18'3 7.4
2017-Aug-08 15:00N 40°50' E 014°16'1224.4
2017-Aug-08 14:30N 40°39' E 014°23'1 1.8
2017-Aug-08 14:00N 40°38' E 014°23'510.7
2017-Aug-08 13:30N 40°43' E 014°21'816.9
2017-Aug-08 13:00N 40°50' E 014°15'2 4.4
2017-Aug-08 12:31N 40°49' E 014°17'1222.6
2017-Aug-08 12:00N 40°38' E 014°23'0 0.0
2017-Aug-08 11:31N 40°38' E 014°23'0 0.0
2017-Aug-08 11:01N 40°38' E 014°23'7 8.7
2017-Aug-08 10:14N 40°34' E 014°15'523.4
2017-Aug-08 10:00N 40°38' E 014°20'6 9.9
2017-Aug-08 09:22N 40°44' E 014°20'710.1
2017-Aug-08 08:41N 40°50' E 014°15'213.4
2017-Aug-08 08:30N 40°48' E 014°18'1122.3
2017-Aug-08 08:00N 40°38' E 014°23'4 8.1
2017-Aug-08 07:30N 40°42' E 014°21'1 0.5
2017-Aug-08 06:23N 40°42' E 014°22'4 9.9
2017-Aug-08 06:00N 40°38' E 014°23'0 0.0
2017-Aug-07 17:12N 40°38' E 014°23'2 2.2
2017-Aug-07 16:16N 40°38' E 014°20'2 7.6
2017-Aug-07 16:00N 40°38' E 014°23'7 0.7
2017-Aug-07 06:30N 40°44' E 014°20'714.1
2017-Aug-07 06:00N 40°38' E 014°23'0 0.0
2017-Aug-06 18:14N 40°38' E 014°23'416.8
2017-Aug-06 18:00N 40°41' E 014°21'1 1.0
2017-Aug-06 17:01N 40°42' E 014°21'028.2
2017-Aug-06 17:00N 40°42' E 014°21'5 9.0
2017-Aug-06 16:30N 40°38' E 014°22'0 0.0
2017-Aug-06 16:00N 40°38' E 014°22'1019.9
2017-Aug-06 15:29N 40°48' E 014°18'3 5.9
2017-Aug-06 15:00N 40°50' E 014°16'1224.5
2017-Aug-06 14:30N 40°39' E 014°23'1 2.1
2017-Aug-06 14:00N 40°38' E 014°23'814.3
2017-Aug-06 13:27N 40°45' E 014°19'  

Dump ship's entire track history